Time;durP1;ratioP1;P1;durP2;ratioP2;P2;SDS_P1;SDS_P2;PMS_P1;PMS_P2;Temp;Humidity;BMP_temperature;BMP_pressure;BME280_temperature;BME280_humidity;BME280_pressure;Samples;Min_cycle;Max_cycle;Signal;HPM_P1;HPM_P2
2022/08/24 00:01:31;;;;;;;1.67;1.40;;;17.40;99.90;;;;;;6288674;28;20320;-66
2022/08/24 00:04:37;;;;;;;1.08;1.08;;;17.40;99.90;;;;;;6288160;28;20307;-66
2022/08/24 00:07:43;;;;;;;1.25;1.17;;;17.40;99.90;;;;;;6288521;28;20427;-66
2022/08/24 00:10:50;;;;;;;1.20;1.17;;;17.40;99.90;;;;;;6283635;28;20276;-66
2022/08/24 00:13:56;;;;;;;1.17;1.17;;;17.40;99.90;;;;;;6263317;28;20599;-66
2022/08/24 00:17:02;;;;;;;1.40;1.30;;;17.30;99.90;;;;;;6262852;28;20456;-66
2022/08/24 00:20:11;;;;;;;1.45;1.45;;;17.30;99.90;;;;;;6263028;28;20295;-65
2022/08/24 00:23:16;;;;;;;1.10;1.10;;;17.30;99.90;;;;;;6262888;28;20284;-66
2022/08/24 00:26:24;;;;;;;1.30;1.20;;;17.20;99.90;;;;;;6263315;28;20383;-66
2022/08/24 00:29:34;;;;;;;1.63;1.63;;;17.20;99.90;;;;;;6262401;28;20296;-66
2022/08/24 00:32:39;;;;;;;2.58;1.45;;;17.20;99.90;;;;;;6262805;28;20268;-66
2022/08/24 00:35:44;;;;;;;1.20;1.20;;;17.10;99.90;;;;;;6262765;28;20475;-65
2022/08/24 00:38:51;;;;;;;5.10;1.35;;;17.10;99.90;;;;;;6261506;28;20296;-67
2022/08/24 00:41:58;;;;;;;1.70;1.20;;;17.10;99.90;;;;;;6263005;28;20276;-67
2022/08/24 00:45:04;;;;;;;1.33;1.33;;;17.10;99.90;;;;;;6244787;28;20300;-67
2022/08/24 00:48:23;;;;;;;1.25;1.20;;;17.10;99.90;;;;;;6262483;28;20295;-67
2022/08/24 00:51:36;;;;;;;1.30;1.30;;;17.20;99.90;;;;;;6262269;28;20535;-67
2022/08/24 00:54:47;;;;;;;1.30;1.30;;;17.10;99.90;;;;;;6262290;28;20292;-68
2022/08/24 00:57:59;;;;;;;2.47;1.40;;;17.00;99.90;;;;;;6262306;28;20555;-68
2022/08/24 01:01:08;;;;;;;1.50;1.20;;;17.00;99.90;;;;;;6244585;28;20332;-67
2022/08/24 01:04:28;;;;;;;1.45;1.45;;;16.90;99.90;;;;;;6261619;28;20296;-67
2022/08/24 01:07:35;;;;;;;1.30;1.30;;;17.00;99.90;;;;;;6261738;28;20299;-67
2022/08/24 01:10:47;;;;;;;1.25;1.25;;;16.90;99.90;;;;;;6258890;28;20596;-67
2022/08/24 01:13:55;;;;;;;1.20;1.20;;;16.90;99.90;;;;;;6281655;28;20543;-66
2022/08/24 01:20:25;;;;;;;1.75;1.30;;;16.90;99.90;;;;;;6285495;28;20294;-66
2022/08/24 01:23:39;;;;;;;1.30;1.30;;;16.90;99.90;;;;;;6285067;28;20291;-66
2022/08/24 01:26:49;;;;;;;1.95;1.40;;;16.80;99.90;;;;;;6268883;28;20299;-66
2022/08/24 01:29:56;;;;;;;1.23;1.20;;;16.70;99.90;;;;;;6286281;28;20295;-66
2022/08/24 01:33:05;;;;;;;1.23;1.17;;;16.70;99.90;;;;;;6267841;28;20432;-66
2022/08/24 01:36:26;;;;;;;1.40;1.30;;;16.60;99.90;;;;;;6286458;28;20271;-66
2022/08/24 01:39:38;;;;;;;2.35;1.35;;;16.60;99.90;;;;;;6285497;28;20295;-66
2022/08/24 01:42:48;;;;;;;1.60;1.20;;;16.60;99.90;;;;;;6268052;28;20275;-67
2022/08/24 01:45:54;;;;;;;1.83;1.17;;;16.50;99.90;;;;;;6285187;28;20377;-66
2022/08/24 01:49:00;;;;;;;4.03;1.30;;;16.50;99.90;;;;;;6285273;28;20470;-66
2022/08/24 01:52:09;;;;;;;1.30;1.30;;;16.50;99.90;;;;;;6284785;28;20271;-66
2022/08/24 01:55:17;;;;;;;1.50;1.40;;;16.50;99.90;;;;;;6268002;28;20295;-67
2022/08/24 01:58:26;;;;;;;1.38;1.33;;;16.50;99.90;;;;;;6267686;28;20294;-66
2022/08/24 02:01:40;;;;;;;1.42;1.42;;;16.40;99.90;;;;;;6267643;28;20303;-67
2022/08/24 02:04:46;;;;;;;2.15;1.42;;;16.40;99.90;;;;;;6283743;28;20477;-66
2022/08/24 02:07:52;;;;;;;1.40;1.40;;;16.40;99.90;;;;;;6284958;28;20303;-66
2022/08/24 02:11:00;;;;;;;2.22;1.70;;;16.30;99.90;;;;;;6279853;28;20259;-66
2022/08/24 02:14:06;;;;;;;3.03;1.73;;;16.30;99.90;;;;;;6260229;28;20295;-66
2022/08/24 02:17:12;;;;;;;1.40;1.40;;;16.30;99.90;;;;;;6260711;28;20598;-66
2022/08/24 02:20:20;;;;;;;1.50;1.50;;;16.30;99.90;;;;;;6260454;28;20295;-66
2022/08/24 02:23:28;;;;;;;3.83;1.65;;;16.30;99.90;;;;;;6259310;28;20586;-66
2022/08/24 02:26:35;;;;;;;1.40;1.40;;;16.30;99.90;;;;;;6260282;28;20268;-67
2022/08/24 02:29:41;;;;;;;2.00;1.50;;;16.20;99.90;;;;;;6242322;28;20300;-67
2022/08/24 02:32:47;;;;;;;3.90;1.60;;;16.20;99.90;;;;;;6259680;28;20271;-68
2022/08/24 02:35:53;;;;;;;2.75;1.50;;;16.20;99.90;;;;;;6283841;28;20274;-66
2022/08/24 02:38:59;;;;;;;1.80;1.70;;;16.10;99.90;;;;;;6309449;28;20302;-66
2022/08/24 02:42:07;;;;;;;2.33;1.55;;;16.20;99.90;;;;;;6309378;28;20452;-66
2022/08/24 02:45:12;;;;;;;1.50;1.50;;;16.20;99.90;;;;;;6309804;28;20293;-66
2022/08/24 02:48:19;;;;;;;1.80;1.70;;;16.20;99.90;;;;;;6291656;28;20294;-66
2022/08/24 02:51:27;;;;;;;1.50;1.40;;;16.10;99.90;;;;;;6309131;28;20271;-67
2022/08/24 02:54:35;;;;;;;2.55;1.50;;;16.10;99.90;;;;;;6313531;28;20294;-66
2022/08/24 02:57:42;;;;;;;1.60;1.60;;;16.10;99.90;;;;;;6296527;28;20278;-66
2022/08/24 03:00:48;;;;;;;1.50;1.50;;;16.10;99.90;;;;;;6289815;28;20605;-66
2022/08/24 03:03:57;;;;;;;1.50;1.50;;;16.10;99.90;;;;;;6281170;28;20476;-66
2022/08/24 03:07:03;;;;;;;1.33;1.33;;;16.00;99.90;;;;;;6263694;28;20567;-66
2022/08/24 03:10:10;;;;;;;1.48;1.30;;;16.10;99.90;;;;;;6264065;28;20606;-66
2022/08/24 03:13:19;;;;;;;1.52;1.52;;;16.00;99.90;;;;;;6258689;28;20318;-66
2022/08/24 03:16:26;;;;;;;1.50;1.40;;;16.00;99.90;;;;;;6296647;28;20278;-66
2022/08/24 03:19:32;;;;;;;1.95;1.50;;;16.00;99.90;;;;;;6300332;28;20294;-65
2022/08/24 03:22:38;;;;;;;1.58;1.55;;;16.00;99.90;;;;;;6287993;28;20275;-67
2022/08/24 03:25:44;;;;;;;1.30;1.30;;;16.00;99.90;;;;;;6289128;28;20290;-66
2022/08/24 03:28:51;;;;;;;3.38;1.70;;;16.00;99.90;;;;;;6261442;28;20305;-66
2022/08/24 03:31:58;;;;;;;1.20;1.20;;;16.10;99.90;;;;;;6262899;28;20272;-66
2022/08/24 03:35:06;;;;;;;1.50;1.50;;;16.10;99.90;;;;;;6283324;28;20298;-66
2022/08/24 03:38:13;;;;;;;1.60;1.60;;;16.10;99.90;;;;;;6283967;28;20308;-66
2022/08/24 03:41:19;;;;;;;1.50;1.50;;;16.10;99.90;;;;;;6263040;28;20276;-66
2022/08/24 03:44:27;;;;;;;1.88;1.77;;;16.00;99.90;;;;;;6262524;28;20462;-66
2022/08/24 03:47:33;;;;;;;2.28;1.25;;;15.90;99.90;;;;;;6263200;28;20279;-66
2022/08/24 03:50:40;;;;;;;1.40;1.38;;;15.90;99.90;;;;;;6261867;28;20276;-66
2022/08/24 03:53:47;;;;;;;1.50;1.50;;;15.90;99.90;;;;;;6262156;28;20291;-67
2022/08/24 03:56:52;;;;;;;1.50;1.40;;;15.90;99.90;;;;;;6262434;28;20524;-67
2022/08/24 04:00:00;;;;;;;1.33;1.33;;;15.90;99.90;;;;;;6280836;28;20303;-66
2022/08/24 04:03:09;;;;;;;1.20;1.20;;;15.90;99.90;;;;;;6282844;28;20295;-66
2022/08/24 04:06:18;;;;;;;1.50;1.35;;;15.90;99.90;;;;;;6245959;28;20271;-67
2022/08/24 04:09:23;;;;;;;1.60;1.50;;;15.90;99.90;;;;;;6262465;28;20304;-66
2022/08/24 04:12:30;;;;;;;1.20;1.20;;;15.90;99.90;;;;;;6245591;28;20280;-66
2022/08/24 04:15:40;;;;;;;1.10;1.10;;;15.90;99.90;;;;;;6262124;28;20453;-67
2022/08/24 04:18:47;;;;;;;1.10;1.10;;;16.00;99.90;;;;;;6244942;28;20602;-66
2022/08/24 04:21:57;;;;;;;1.95;1.95;;;16.00;99.90;;;;;;6261970;28;20453;-66
2022/08/24 04:25:03;;;;;;;2.15;1.40;;;16.00;99.90;;;;;;6261639;28;20303;-66
2022/08/24 04:28:40;;;;;;;1.27;1.27;;;16.00;99.90;;;;;;6248501;28;20477;-67
2022/08/24 04:31:47;;;;;;;1.80;1.40;;;16.10;99.90;;;;;;6245885;28;20268;-67
2022/08/24 04:34:55;;;;;;;1.40;1.30;;;16.00;99.90;;;;;;6277118;28;20316;-66
2022/08/24 04:38:00;;;;;;;1.30;1.30;;;15.90;99.90;;;;;;6261436;28;20441;-66
2022/08/24 04:41:08;;;;;;;1.30;1.30;;;16.00;99.90;;;;;;6245630;28;20582;-65
2022/08/24 04:44:19;;;;;;;1.40;1.40;;;15.90;99.90;;;;;;6244241;28;20296;-67
2022/08/24 04:47:26;;;;;;;1.40;1.35;;;16.00;99.90;;;;;;6262053;28;20272;-67
2022/08/24 04:50:34;;;;;;;2.72;1.40;;;16.00;99.90;;;;;;6244686;28;20311;-67
2022/08/24 04:53:42;;;;;;;1.48;1.20;;;16.10;99.90;;;;;;6277278;28;20303;-66
2022/08/24 04:56:49;;;;;;;1.25;1.25;;;16.10;99.90;;;;;;6261427;28;20558;-66
2022/08/24 04:59:57;;;;;;;1.23;1.23;;;16.00;99.90;;;;;;6244572;28;20313;-67
2022/08/24 05:03:04;;;;;;;5.22;1.10;;;16.00;99.90;;;;;;6264177;28;20290;-67
2022/08/24 05:06:14;;;;;;;1.15;1.15;;;16.00;99.90;;;;;;6269869;28;20271;-67
2022/08/24 05:09:20;;;;;;;1.20;1.10;;;16.00;99.90;;;;;;6285695;28;20299;-68
2022/08/24 05:12:26;;;;;;;1.67;1.58;;;16.10;99.90;;;;;;6285620;28;20291;-67
2022/08/24 05:15:43;;;;;;;1.65;1.30;;;16.10;99.90;;;;;;6268389;28;20271;-67
2022/08/24 05:18:51;;;;;;;1.48;1.10;;;16.20;99.90;;;;;;6268845;28;20290;-67
2022/08/24 05:21:56;;;;;;;1.30;1.20;;;16.20;99.90;;;;;;6285732;28;20546;-68
2022/08/24 05:25:03;;;;;;;0.93;0.93;;;16.30;99.90;;;;;;6284938;28;20299;-68
2022/08/24 05:28:11;;;;;;;1.30;1.20;;;16.30;99.90;;;;;;6268756;28;20294;-66
2022/08/24 05:31:19;;;;;;;1.77;1.15;;;16.30;99.90;;;;;;6286127;28;20294;-67
2022/08/24 05:34:26;;;;;;;3.45;1.10;;;16.40;99.90;;;;;;6284653;28;20587;-67
2022/08/24 05:37:34;;;;;;;0.95;0.95;;;16.30;99.90;;;;;;6268292;28;20384;-66
2022/08/24 05:40:50;;;;;;;2.25;0.95;;;16.40;99.90;;;;;;6267238;28;20279;-67
2022/08/24 05:44:00;;;;;;;1.13;1.13;;;16.40;99.90;;;;;;6284220;28;20295;-68
2022/08/24 05:47:11;;;;;;;1.40;1.35;;;16.50;99.90;;;;;;6268674;28;20271;-67
2022/08/24 05:50:18;;;;;;;3.70;1.45;;;16.60;99.90;;;;;;6284259;28;20307;-69
2022/08/24 05:53:25;;;;;;;1.10;1.10;;;16.70;99.90;;;;;;6260257;28;20306;-67
2022/08/24 05:56:31;;;;;;;1.10;1.10;;;16.70;99.90;;;;;;6284663;28;20322;-68
2022/08/24 05:59:38;;;;;;;3.63;1.10;;;16.70;99.90;;;;;;6267761;28;20294;-67
2022/08/24 06:02:54;;;;;;;1.33;1.10;;;16.80;99.90;;;;;;6267407;28;20299;-67
2022/08/24 06:06:03;;;;;;;1.10;1.10;;;16.70;99.90;;;;;;6284682;28;20271;-66
2022/08/24 06:09:11;;;;;;;1.48;1.10;;;16.90;99.90;;;;;;6284274;28;20371;-67
2022/08/24 06:12:18;;;;;;;0.80;0.80;;;16.90;99.90;;;;;;6259445;28;20291;-67
2022/08/24 06:15:24;;;;;;;2.92;1.30;;;17.00;99.90;;;;;;6236037;28;20299;-67
2022/08/24 06:18:31;;;;;;;1.17;1.17;;;17.00;99.90;;;;;;6242163;28;20457;-67
2022/08/24 06:21:41;;;;;;;1.00;1.00;;;17.10;99.90;;;;;;6259119;28;20280;-66
2022/08/24 06:28:19;;;;;;;1.10;1.10;;;17.20;99.90;;;;;;6258762;28;20287;-67
2022/08/24 06:31:26;;;;;;;1.27;0.93;;;17.30;99.90;;;;;;6275835;28;20295;-67
2022/08/24 06:34:33;;;;;;;0.90;0.90;;;17.40;99.90;;;;;;6259496;28;20461;-67
2022/08/24 06:37:40;;;;;;;0.98;0.98;;;17.40;99.90;;;;;;6241693;28;20271;-67
2022/08/24 06:40:45;;;;;;;2.05;1.00;;;17.60;99.90;;;;;;6242861;28;20276;-67
2022/08/24 06:43:51;;;;;;;0.88;0.88;;;17.70;99.90;;;;;;6259778;28;20295;-67
2022/08/24 06:47:02;;;;;;;1.20;0.90;;;17.90;99.90;;;;;;6243239;28;20351;-67
2022/08/24 06:50:10;;;;;;;0.90;0.90;;;18.00;99.90;;;;;;6259688;28;20607;-67
2022/08/24 06:53:19;;;;;;;2.72;1.30;;;18.20;99.90;;;;;;6274311;28;20307;-66
2022/08/24 06:56:26;;;;;;;0.98;0.98;;;18.20;99.90;;;;;;6242473;28;20272;-66
2022/08/24 06:59:32;;;;;;;0.93;0.93;;;18.10;99.90;;;;;;6275046;28;20303;-67
2022/08/24 07:02:37;;;;;;;0.95;0.95;;;18.20;99.90;;;;;;6270140;28;20299;-67
2022/08/24 07:05:50;;;;;;;2.00;1.05;;;18.20;99.90;;;;;;6258548;28;20272;-67
2022/08/24 07:09:13;;;;;;;1.98;1.02;;;18.20;99.90;;;;;;6258570;28;20300;-67
2022/08/24 07:12:19;;;;;;;0.90;0.90;;;18.10;99.90;;;;;;6284543;28;20291;-67
2022/08/24 07:15:25;;;;;;;0.93;0.93;;;18.00;99.90;;;;;;6282276;28;20294;-67
2022/08/24 07:18:45;;;;;;;0.85;0.85;;;18.20;99.90;;;;;;6266687;28;20298;-66
2022/08/24 07:21:57;;;;;;;0.90;0.90;;;18.20;99.90;;;;;;6283382;28;20271;-67
2022/08/24 07:25:07;;;;;;;1.00;1.00;;;18.30;99.90;;;;;;6282567;28;20475;-66
2022/08/24 07:28:17;;;;;;;1.50;1.00;;;18.30;99.90;;;;;;6282899;28;20300;-66
2022/08/24 07:31:38;;;;;;;0.85;0.85;;;18.30;99.90;;;;;;6283507;28;20300;-67
2022/08/24 07:35:15;;;;;;;2.08;0.98;;;18.20;99.90;;;;;;6277527;28;20290;-68
2022/08/24 07:38:21;;;;;;;1.00;1.00;;;18.20;99.90;;;;;;6282630;28;20555;-67
2022/08/24 07:41:30;;;;;;;0.80;0.80;;;18.20;99.90;;;;;;6287647;28;20275;-67
2022/08/24 07:44:53;;;;;;;1.48;0.95;;;18.20;99.90;;;;;;6287041;28;20298;-67
2022/08/24 07:48:01;;;;;;;2.80;1.02;;;18.30;99.90;;;;;;6286412;28;20334;-67
2022/08/24 07:51:19;;;;;;;1.05;0.95;;;18.40;99.90;;;;;;6271027;28;20271;-67
2022/08/24 07:54:27;;;;;;;0.75;0.75;;;18.40;99.90;;;;;;6287998;28;20476;-67
2022/08/24 07:57:37;;;;;;;1.58;1.00;;;18.50;99.90;;;;;;6287639;28;20571;-67
2022/08/24 08:00:47;;;;;;;1.30;0.77;;;18.50;99.90;;;;;;6286204;28;20271;-67
2022/08/24 08:03:53;;;;;;;0.80;0.80;;;18.60;99.90;;;;;;6286398;28;20298;-67
2022/08/24 08:07:00;;;;;;;0.95;0.95;;;18.60;99.90;;;;;;6287806;28;20271;-66
2022/08/24 08:10:12;;;;;;;0.82;0.80;;;18.60;99.90;;;;;;6279137;28;20610;-67
2022/08/24 08:13:20;;;;;;;0.90;0.90;;;18.60;99.90;;;;;;6261283;28;20587;-67
2022/08/24 08:16:27;;;;;;;0.85;0.85;;;18.60;99.70;;;;;;6246258;28;20279;-67
2022/08/24 08:19:32;;;;;;;0.90;0.90;;;18.70;99.30;;;;;;6248447;28;20475;-66
2022/08/24 08:26:25;;;;;;;1.00;1.00;;;18.70;98.70;;;;;;6288367;28;20276;-66
2022/08/24 08:30:20;;;;;;;1.35;1.25;;;18.70;98.80;;;;;;6286998;28;20299;-67
2022/08/24 08:33:28;;;;;;;3.40;3.17;;;18.90;99.70;;;;;;6286730;28;20291;-66
2022/08/24 08:36:37;;;;;;;1.45;1.45;;;18.80;98.70;;;;;;6288130;28;20443;-67
2022/08/24 08:39:44;;;;;;;4.78;4.47;;;18.90;99.20;;;;;;6286795;28;20299;-67
2022/08/24 08:43:04;;;;;;;3.08;2.15;;;19.00;99.00;;;;;;6286332;28;20275;-66
2022/08/24 08:46:26;;;;;;;1.40;1.25;;;19.10;99.70;;;;;;6286418;28;20271;-67
2022/08/24 08:50:09;;;;;;;1.10;1.10;;;19.00;99.60;;;;;;6285727;28;20387;-67
2022/08/24 08:54:01;;;;;;;1.63;1.63;;;19.00;99.20;;;;;;6268619;28;20610;-66
2022/08/24 08:57:22;;;;;;;1.20;1.10;;;18.90;99.70;;;;;;6269994;28;20567;-66
2022/08/24 09:00:45;;;;;;;1.05;0.90;;;18.90;99.90;;;;;;6284996;28;20491;-67
2022/08/24 09:04:23;;;;;;;3.50;0.90;;;18.90;99.90;;;;;;6268008;28;20303;-67
2022/08/24 09:07:50;;;;;;;0.88;0.88;;;18.90;99.90;;;;;;6268169;28;20271;-67
2022/08/24 09:11:06;;;;;;;1.10;1.10;;;18.80;99.90;;;;;;6269516;28;20263;-66
2022/08/24 09:14:44;;;;;;;1.35;1.35;;;18.70;99.90;;;;;;6268842;28;20303;-67
2022/08/24 09:18:06;;;;;;;3.50;1.35;;;18.80;99.90;;;;;;6286236;28;20271;-67
2022/08/24 09:21:45;;;;;;;1.45;1.27;;;18.80;99.90;;;;;;6269235;28;20272;-66
2022/08/24 09:25:32;;;;;;;1.63;1.40;;;18.90;99.90;;;;;;6285184;28;20486;-66
2022/08/24 09:28:54;;;;;;;2.00;1.02;;;18.90;99.90;;;;;;6267343;28;20559;-67
2022/08/24 09:32:24;;;;;;;1.55;1.40;;;18.90;99.90;;;;;;6286912;28;20287;-66
2022/08/24 09:35:40;;;;;;;0.85;0.82;;;18.90;99.90;;;;;;6286119;28;20290;-67
2022/08/24 09:39:07;;;;;;;0.70;0.70;;;18.90;99.90;;;;;;6285831;28;20294;-66
2022/08/24 09:43:12;;;;;;;0.93;0.90;;;19.00;99.90;;;;;;6286139;28;20269;-70
2022/08/24 09:47:20;;;;;;;0.88;0.85;;;18.90;99.90;;;;;;6285251;28;20276;-66
2022/08/24 09:50:55;;;;;;;3.03;1.02;;;19.00;99.90;;;;;;6285526;28;20295;-67
2022/08/24 09:54:42;;;;;;;1.02;1.02;;;19.00;99.90;;;;;;6285549;28;20299;-67
2022/08/24 09:57:58;;;;;;;2.53;0.93;;;19.00;99.90;;;;;;6285136;28;20306;-67
2022/08/24 10:01:14;;;;;;;1.70;1.30;;;19.10;99.90;;;;;;6285038;28;20271;-67
2022/08/24 10:04:28;;;;;;;1.25;1.15;;;19.20;99.90;;;;;;6285208;28;20294;-66
2022/08/24 10:07:41;;;;;;;1.10;1.00;;;19.20;99.90;;;;;;6285185;28;20458;-67
2022/08/24 10:10:56;;;;;;;1.23;1.00;;;19.20;99.70;;;;;;6284320;28;20574;-66
2022/08/24 10:14:09;;;;;;;1.20;1.20;;;19.20;99.80;;;;;;6284554;28;20298;-67
2022/08/24 10:17:25;;;;;;;1.85;1.30;;;19.30;99.90;;;;;;6285470;28;20271;-67
2022/08/24 10:21:07;;;;;;;1.88;1.10;;;19.40;99.90;;;;;;6258973;28;20275;-66
2022/08/24 10:24:29;;;;;;;1.20;1.10;;;19.50;99.50;;;;;;6273748;28;20298;-67
2022/08/24 10:28:24;;;;;;;1.55;1.50;;;19.60;99.80;;;;;;6284238;28;20279;-67
2022/08/24 10:31:39;;;;;;;1.98;1.40;;;19.60;99.10;;;;;;6285449;28;20299;-66
2022/08/24 10:34:58;;;;;;;1.00;1.00;;;19.70;99.10;;;;;;6284959;28;20306;-67
2022/08/24 10:46:36;;;;;;;1.45;1.45;;;19.80;98.10;;;;;;6284377;28;20317;-66
2022/08/24 10:50:27;;;;;;;0.80;0.80;;;19.90;97.40;;;;;;6284513;28;20291;-66
2022/08/24 10:53:37;;;;;;;2.35;0.80;;;20.00;97.30;;;;;;6284246;28;20302;-66
2022/08/24 10:56:51;;;;;;;0.88;0.88;;;20.00;97.60;;;;;;6284719;28;20275;-66
2022/08/24 11:00:04;;;;;;;0.90;0.90;;;20.10;97.70;;;;;;6284262;28;20291;-66
2022/08/24 11:03:25;;;;;;;1.08;1.08;;;20.10;97.10;;;;;;6283794;28;20299;-65
2022/08/24 11:07:09;;;;;;;2.20;0.90;;;20.20;97.00;;;;;;6284578;28;20272;-66
2022/08/24 11:10:25;;;;;;;2.25;1.00;;;20.20;97.30;;;;;;6283977;28;20295;-66
2022/08/24 11:13:57;;;;;;;1.00;1.00;;;20.30;97.90;;;;;;6285062;28;20294;-67
2022/08/24 11:17:17;;;;;;;1.30;0.80;;;20.30;97.40;;;;;;6289452;28;20606;-67
2022/08/24 11:20:45;;;;;;;0.90;0.90;;;20.30;97.60;;;;;;6288615;28;20278;-67
2022/08/24 11:23:52;;;;;;;2.85;0.95;;;20.30;97.50;;;;;;6288559;28;20295;-66
2022/08/24 11:27:02;;;;;;;1.15;1.15;;;20.40;96.80;;;;;;6289093;28;20275;-68
2022/08/24 11:30:25;;;;;;;1.20;0.93;;;20.50;97.40;;;;;;6288778;28;20474;-66
2022/08/24 11:33:58;;;;;;;0.77;0.77;;;20.50;97.00;;;;;;6288418;28;20307;-66
2022/08/24 11:37:14;;;;;;;4.22;0.85;;;20.50;97.90;;;;;;6289349;28;20287;-66
2022/08/24 11:40:23;;;;;;;3.08;1.10;;;20.50;97.90;;;;;;6288650;28;20298;-66
2022/08/24 11:43:44;;;;;;;1.08;1.00;;;20.50;97.70;;;;;;6288145;28;20299;-66
2022/08/24 11:46:55;;;;;;;0.90;0.90;;;20.60;97.90;;;;;;6288939;28;20485;-65
2022/08/24 11:50:39;;;;;;;4.78;0.98;;;20.60;97.80;;;;;;6287724;28;20291;-67
2022/08/24 11:54:18;;;;;;;4.57;2.55;;;20.60;98.10;;;;;;6287395;28;20594;-67
2022/08/24 11:57:44;;;;;;;4.13;1.60;;;20.70;97.40;;;;;;6287182;28;20267;-67
2022/08/24 12:00:58;;;;;;;0.80;0.80;;;20.80;96.70;;;;;;6283978;28;20271;-67
2022/08/24 12:04:27;;;;;;;1.98;1.13;;;20.80;97.60;;;;;;6285688;28;20302;-66
2022/08/24 12:07:48;;;;;;;1.98;0.88;;;20.90;97.10;;;;;;6271626;28;20267;-66
2022/08/24 12:11:07;;;;;;;5.22;1.20;;;20.90;96.50;;;;;;6287661;28;20275;-66
2022/08/24 12:14:33;;;;;;;0.90;0.90;;;21.00;96.70;;;;;;6286883;28;20295;-68
2022/08/24 12:17:44;;;;;;;0.90;0.90;;;21.10;96.10;;;;;;6287337;28;20267;-66
2022/08/24 12:20:50;;;;;;;0.88;0.88;;;21.20;95.70;;;;;;6287614;28;20580;-66
2022/08/24 12:24:02;;;;;;;0.90;0.90;;;21.30;96.50;;;;;;6286932;28;20294;-67
2022/08/24 12:27:12;;;;;;;1.58;0.98;;;21.20;96.60;;;;;;6287656;28;20275;-66
2022/08/24 12:30:18;;;;;;;1.30;1.30;;;21.30;96.80;;;;;;6287427;28;20295;-66
2022/08/24 12:33:30;;;;;;;1.17;1.17;;;21.30;96.60;;;;;;6286879;28;20316;-67
2022/08/24 12:36:46;;;;;;;0.90;0.90;;;21.40;96.40;;;;;;6287860;28;20291;-66
2022/08/24 12:40:00;;;;;;;1.10;1.10;;;21.40;96.30;;;;;;6287686;28;20303;-67
2022/08/24 12:43:11;;;;;;;1.40;1.40;;;21.40;96.80;;;;;;6286445;28;20458;-67
2022/08/24 12:46:22;;;;;;;1.08;1.08;;;21.30;96.50;;;;;;6287095;28;20386;-66
2022/08/24 12:49:35;;;;;;;1.20;1.20;;;21.40;96.80;;;;;;6287192;28;20291;-67
2022/08/24 12:53:41;;;;;;;4.32;1.40;;;21.50;97.10;;;;;;6286931;28;20449;-66
2022/08/24 12:57:24;;;;;;;0.95;0.95;;;21.50;96.50;;;;;;6287386;28;20291;-67
2022/08/24 13:00:36;;;;;;;1.20;1.20;;;21.60;97.00;;;;;;6285791;28;20295;-67
2022/08/24 13:03:44;;;;;;;2.10;2.00;;;21.50;96.60;;;;;;6286568;28;20295;-66
2022/08/24 13:06:54;;;;;;;1.38;1.20;;;21.50;96.70;;;;;;6286965;28;20559;-67
2022/08/24 13:10:13;;;;;;;2.17;1.30;;;21.50;96.90;;;;;;6285918;28;20299;-67
2022/08/24 13:13:45;;;;;;;1.13;1.02;;;21.60;97.50;;;;;;6286397;28;20451;-66
2022/08/24 13:17:12;;;;;;;1.10;1.10;;;21.80;96.30;;;;;;6286585;28;20287;-67
2022/08/24 13:20:23;;;;;;;0.90;0.90;;;21.80;96.90;;;;;;6286440;28;20296;-67
2022/08/24 13:23:29;;;;;;;1.00;1.00;;;21.80;96.10;;;;;;6285368;28;20470;-68
2022/08/24 13:26:35;;;;;;;2.17;1.10;;;21.70;96.10;;;;;;6286343;28;20274;-66
2022/08/24 13:29:43;;;;;;;1.10;1.10;;;21.70;97.00;;;;;;6285686;28;20299;-66
2022/08/24 13:33:03;;;;;;;1.00;1.00;;;21.80;96.60;;;;;;6285953;28;20267;-67
2022/08/24 13:36:53;;;;;;;1.00;1.00;;;21.90;96.40;;;;;;6286774;28;20291;-67
2022/08/24 13:40:14;;;;;;;2.28;1.00;;;22.00;96.10;;;;;;6285651;28;20295;-66
2022/08/24 13:43:23;;;;;;;1.05;0.95;;;22.10;95.50;;;;;;6285872;28;20295;-66
2022/08/24 13:46:45;;;;;;;1.00;1.00;;;22.10;95.60;;;;;;6286441;28;20271;-66
2022/08/24 13:50:06;;;;;;;3.05;1.30;;;22.20;95.50;;;;;;6285606;28;20291;-67
2022/08/24 13:53:46;;;;;;;2.38;1.20;;;22.10;95.60;;;;;;6285679;28;20294;-67
2022/08/24 13:57:31;;;;;;;1.27;1.00;;;22.20;95.30;;;;;;6285904;28;20291;-67
2022/08/24 14:00:45;;;;;;;1.05;1.05;;;22.20;95.80;;;;;;6282164;28;20299;-65
2022/08/24 14:04:12;;;;;;;21.60;14.82;;;22.30;95.70;;;;;;6281031;28;20299;-66
2022/08/24 14:07:23;;;;;;;16.20;11.80;;;22.20;94.80;;;;;;6285764;28;20203;-66
2022/08/24 14:10:43;;;;;;;2.85;2.75;;;22.20;95.00;;;;;;6284740;28;20387;-67
2022/08/24 14:14:02;;;;;;;1.40;1.40;;;22.20;94.90;;;;;;6285035;28;20334;-66
2022/08/24 14:21:07;;;;;;;1.15;0.90;;;22.30;94.70;;;;;;6302873;28;20283;-67
2022/08/24 14:24:27;;;;;;;2.00;0.90;;;22.20;94.80;;;;;;6308095;28;20297;-66
2022/08/24 14:27:40;;;;;;;1.60;0.90;;;22.10;94.60;;;;;;6310038;28;20278;-66
2022/08/24 14:30:48;;;;;;;1.75;0.93;;;22.10;94.40;;;;;;6309590;28;20282;-66
2022/08/24 14:34:13;;;;;;;1.00;1.00;;;22.10;94.50;;;;;;6308313;28;20294;-68
2022/08/24 14:37:23;;;;;;;3.92;1.38;;;22.10;94.80;;;;;;6310289;28;20467;-67
2022/08/24 14:40:35;;;;;;;0.90;0.90;;;22.10;95.20;;;;;;6309502;28;20294;-67
2022/08/24 14:44:05;;;;;;;1.45;1.05;;;22.10;94.50;;;;;;6309441;28;20294;-66
2022/08/24 14:47:27;;;;;;;2.05;2.05;;;22.00;93.90;;;;;;6310415;28;20279;-67
2022/08/24 14:50:38;;;;;;;1.40;1.40;;;22.00;94.20;;;;;;6314497;28;20302;-65
2022/08/24 14:54:00;;;;;;;1.75;1.70;;;22.00;94.80;;;;;;6314152;28;20378;-66
2022/08/24 14:57:25;;;;;;;3.83;1.30;;;22.10;94.80;;;;;;6314433;28;20290;-67
2022/08/24 15:01:01;;;;;;;1.75;1.17;;;22.10;93.70;;;;;;6312294;28;20397;-66
2022/08/24 15:04:34;;;;;;;0.85;0.85;;;22.00;93.70;;;;;;6312468;28;20489;-67
2022/08/24 15:07:54;;;;;;;0.80;0.80;;;22.00;93.90;;;;;;6313291;28;20286;-67
2022/08/24 15:11:08;;;;;;;0.80;0.80;;;22.00;93.30;;;;;;6301215;28;20263;-67
2022/08/24 15:14:30;;;;;;;1.33;1.33;;;22.00;93.90;;;;;;6276087;28;20335;-66
2022/08/24 15:17:59;;;;;;;8.30;1.40;;;22.00;93.80;;;;;;6263526;28;20291;-67
2022/08/24 15:21:17;;;;;;;0.80;0.80;;;22.00;94.30;;;;;;6264444;28;20277;-67
2022/08/24 15:24:37;;;;;;;0.80;0.80;;;21.90;93.20;;;;;;6263829;28;20292;-66
2022/08/24 15:27:47;;;;;;;1.27;1.00;;;21.90;93.90;;;;;;6263669;28;20272;-66
2022/08/24 15:31:01;;;;;;;1.63;0.93;;;22.00;93.30;;;;;;6263737;28;20273;-66
2022/08/24 15:34:06;;;;;;;0.80;0.80;;;21.90;94.00;;;;;;6264005;28;20359;-67
2022/08/24 15:37:14;;;;;;;0.85;0.85;;;21.90;93.60;;;;;;6264046;28;20288;-66
2022/08/24 15:40:28;;;;;;;1.63;0.73;;;21.90;93.70;;;;;;6263470;28;20296;-67
2022/08/24 15:43:36;;;;;;;1.58;1.02;;;21.80;93.90;;;;;;6263723;28;20291;-66
2022/08/24 15:46:47;;;;;;;1.20;1.20;;;21.80;93.80;;;;;;6264166;28;20267;-66
2022/08/24 15:49:57;;;;;;;3.60;1.70;;;21.70;94.20;;;;;;6263558;28;20303;-67
2022/08/24 15:53:07;;;;;;;1.00;0.98;;;21.70;93.50;;;;;;6263363;28;20296;-66
2022/08/24 15:56:34;;;;;;;1.67;0.90;;;21.70;93.50;;;;;;6263578;28;20267;-66
2022/08/24 15:59:50;;;;;;;1.63;1.02;;;21.70;94.00;;;;;;6262358;28;20300;-67
2022/08/24 16:03:21;;;;;;;2.90;1.60;;;21.60;94.10;;;;;;6262829;28;20296;-66
2022/08/24 16:06:39;;;;;;;1.20;1.20;;;21.70;93.30;;;;;;6263766;28;20272;-65
2022/08/24 16:09:45;;;;;;;2.55;2.45;;;21.60;94.00;;;;;;6263212;28;20595;-67
2022/08/24 16:12:53;;;;;;;3.65;3.55;;;21.60;93.40;;;;;;6264607;28;20276;-66
2022/08/24 16:16:03;;;;;;;3.85;3.55;;;21.50;93.90;;;;;;6310561;28;20271;-67
2022/08/24 16:19:23;;;;;;;1.65;1.65;;;21.50;93.60;;;;;;6312452;28;20298;-66
2022/08/24 16:22:33;;;;;;;2.67;1.50;;;21.50;93.40;;;;;;6312844;28;20270;-67
2022/08/24 16:25:40;;;;;;;1.23;1.10;;;21.50;93.40;;;;;;6312193;28;20278;-67
2022/08/24 16:28:52;;;;;;;0.90;0.90;;;21.40;93.30;;;;;;6312159;28;20318;-66
2022/08/24 16:32:09;;;;;;;2.33;0.93;;;21.30;93.40;;;;;;6312511;28;20550;-67
2022/08/24 16:35:26;;;;;;;4.97;4.70;;;21.20;93.80;;;;;;6311855;28;20302;-66
2022/08/24 16:38:33;;;;;;;1.88;1.83;;;21.20;93.60;;;;;;6312135;28;20290;-66
2022/08/24 16:41:39;;;;;;;2.08;1.20;;;21.10;93.80;;;;;;6312628;28;20270;-66
2022/08/24 16:44:45;;;;;;;1.10;1.10;;;21.10;94.00;;;;;;6311545;28;20298;-66
2022/08/24 16:47:50;;;;;;;1.30;1.30;;;21.00;93.60;;;;;;6311056;28;20275;-66
2022/08/24 16:50:57;;;;;;;1.30;1.30;;;21.00;94.00;;;;;;6312481;28;20270;-66
2022/08/24 16:54:03;;;;;;;4.20;3.90;;;21.00;93.70;;;;;;6311593;28;20294;-67
2022/08/24 16:57:13;;;;;;;4.55;2.97;;;21.00;93.30;;;;;;6312400;28;20270;-67
2022/08/24 17:00:20;;;;;;;2.42;2.22;;;21.00;93.40;;;;;;6310417;28;20302;-67
2022/08/24 17:03:27;;;;;;;3.47;3.35;;;20.90;93.50;;;;;;6294603;28;20446;-65
2022/08/24 17:06:34;;;;;;;2.17;2.08;;;20.90;93.30;;;;;;6287294;28;20271;-67
2022/08/24 17:09:42;;;;;;;1.10;1.10;;;20.90;93.50;;;;;;6284167;28;21696;-65
2022/08/24 17:12:48;;;;;;;1.55;1.48;;;20.70;93.50;;;;;;6262488;28;20268;-66